aviador You're here:

KQDG Decoded Metar

ADANA/INCIRLIK in USA-MIL
Report Time2018-06-24 08:56:00
UTC Time2018-06-24 09:25:45
Flight Rules unknown UNKNOWN
Wind300° at 05 kt
W.Rank300° ranks 3
Current wind is below 300° avg. (10.8)
VisibilityN/A
Phenomena:N/A
Clouds:N/A
Expected CloudBase > 1,600 ft AGL from Temp-Dew spread
CeilingNone
Temp21°C (ISA +6)
Dew Point17°C (78% RH)
QNH1003 hPa
Density Alt1,594 ft
Elevation240 ft
Report Wrong Elevation
Raw Report
METAR KQDG 240856Z AUTO 30005KT M M M 21/17 A2961 RMK AO2 SLP029 T02130172
53006 PWINO TSNO $=

Extra information for KQDG:More info

Metar Taf Metar & Taf Last 4 Metars F.Rules Stats Wind Profile Meteogram Temp Stats Airport Information Weather charts Add Link Nearby VenuesMetar ALERT Operation Metar Decoded Social comments